PROFILE

 METAR AND TAF INFORMATION
ADDS - METARS form results

(2145 UTC 10 December 2018)
http://aviationweather.gov/metar/data/
 
DTMB 102100Z 29011KT 9999 FEW040 16/07 Q1022 NOSIG
TAF DTMB 101740Z 1018/1118 29017G27KT 9999 FEW033 BECMG 1100/1102 27012KT 

 AIRPORT MAP

 RUNWAY INFORMATION
Runway 07 Runway length 9678 ft Runway width 148 ft
Runway elevation 8 ft Runway displaced threshold 0 ft Runway heading 74
Runway 25 Runway length 9678 ft Runway width 148 ft
Runway elevation 8 ft Runway displaced threshold 0 ft Runway heading 254

 AIRPORT FREQUENCIES
Type APP Name BOURGUIBA Frequency 119.3 MHZ
Type ATIS Name MONASTIR A Frequency 113.1 MHZ
Type TWR Name BOURGUIBA Frequency 118.3 MHZ

 AIRPORT NEAR NAVIGATION AIDS
Type VOR-DME Name Monastir Frequency 113100 KHZ